sensor_id;sensor_type;location;lat;lon;timestamp;pressure;altitude;pressure_sealevel;temperature;humidity
61697;BME280;47610;52.252;20.922;2023-05-18T00:04:20;101006.84;;;9.83;100.00
61697;BME280;47610;52.252;20.922;2023-05-18T00:09:23;101001.88;;;9.76;100.00
61697;BME280;47610;52.252;20.922;2023-05-18T00:14:27;101005.23;;;9.72;100.00
61697;BME280;47610;52.252;20.922;2023-05-18T00:19:30;101002.13;;;9.68;100.00
61697;BME280;47610;52.252;20.922;2023-05-18T00:24:33;101004.66;;;9.62;100.00
61697;BME280;47610;52.252;20.922;2023-05-18T00:29:36;101012.59;;;9.59;100.00
61697;BME280;47610;52.252;20.922;2023-05-18T00:34:40;101010.67;;;9.57;100.00
61697;BME280;47610;52.252;20.922;2023-05-18T00:39:43;101008.16;;;9.58;100.00
61697;BME280;47610;52.252;20.922;2023-05-18T00:44:46;101012.58;;;9.60;100.00
61697;BME280;47610;52.252;20.922;2023-05-18T00:49:49;101018.07;;;9.62;100.00
61697;BME280;47610;52.252;20.922;2023-05-18T00:54:53;101020.63;;;9.61;100.00
61697;BME280;47610;52.252;20.922;2023-05-18T00:59:56;101033.13;;;9.62;100.00
61697;BME280;47610;52.252;20.922;2023-05-18T01:04:59;101034.47;;;9.67;100.00
61697;BME280;47610;52.252;20.922;2023-05-18T01:10:03;101036.15;;;9.69;100.00
61697;BME280;47610;52.252;20.922;2023-05-18T01:15:09;101044.80;;;9.71;100.00
61697;BME280;47610;52.252;20.922;2023-05-18T01:20:21;101039.95;;;9.75;100.00
61697;BME280;47610;52.252;20.922;2023-05-18T01:25:33;101040.23;;;9.74;100.00
61697;BME280;47610;52.252;20.922;2023-05-18T01:30:43;101045.90;;;9.71;100.00
61697;BME280;47610;52.252;20.922;2023-05-18T01:35:47;101051.20;;;9.68;100.00
61697;BME280;47610;52.252;20.922;2023-05-18T01:40:55;101048.48;;;9.66;100.00
61697;BME280;47610;52.252;20.922;2023-05-18T01:46:12;101049.02;;;9.62;100.00
61697;BME280;47610;52.252;20.922;2023-05-18T01:51:20;101048.38;;;9.60;100.00
61697;BME280;47610;52.252;20.922;2023-05-18T01:56:27;101048.10;;;9.56;100.00
61697;BME280;47610;52.252;20.922;2023-05-18T02:01:30;101053.77;;;9.52;100.00
61697;BME280;47610;52.252;20.922;2023-05-18T02:06:34;101053.27;;;9.49;100.00
61697;BME280;47610;52.252;20.922;2023-05-18T02:11:37;101063.17;;;9.42;100.00
61697;BME280;47610;52.252;20.922;2023-05-18T02:16:40;101071.00;;;9.40;100.00
61697;BME280;47610;52.252;20.922;2023-05-18T02:21:43;101067.57;;;9.35;100.00
61697;BME280;47610;52.252;20.922;2023-05-18T02:26:46;101069.80;;;9.30;100.00
61697;BME280;47610;52.252;20.922;2023-05-18T02:31:50;101076.83;;;9.23;100.00
61697;BME280;47610;52.252;20.922;2023-05-18T02:36:53;101074.67;;;9.20;100.00
61697;BME280;47610;52.252;20.922;2023-05-18T02:41:56;101077.73;;;9.14;100.00
61697;BME280;47610;52.252;20.922;2023-05-18T02:46:59;101081.48;;;9.08;100.00
61697;BME280;47610;52.252;20.922;2023-05-18T02:52:02;101080.65;;;9.05;100.00
61697;BME280;47610;52.252;20.922;2023-05-18T02:57:06;101082.51;;;9.01;100.00
61697;BME280;47610;52.252;20.922;2023-05-18T03:02:09;101081.39;;;9.01;100.00
61697;BME280;47610;52.252;20.922;2023-05-18T03:07:12;101089.15;;;9.02;100.00
61697;BME280;47610;52.252;20.922;2023-05-18T03:12:15;101094.66;;;8.99;100.00
61697;BME280;47610;52.252;20.922;2023-05-18T03:17:18;101105.87;;;9.02;100.00
61697;BME280;47610;52.252;20.922;2023-05-18T03:22:22;101109.38;;;9.06;100.00
61697;BME280;47610;52.252;20.922;2023-05-18T03:27:25;101116.60;;;9.06;100.00
61697;BME280;47610;52.252;20.922;2023-05-18T03:32:28;101116.39;;;9.07;100.00
61697;BME280;47610;52.252;20.922;2023-05-18T03:37:31;101117.84;;;9.11;100.00
61697;BME280;47610;52.252;20.922;2023-05-18T03:42:35;101122.26;;;9.17;100.00
61697;BME280;47610;52.252;20.922;2023-05-18T03:47:38;101132.61;;;9.24;100.00
61697;BME280;47610;52.252;20.922;2023-05-18T03:52:43;101133.64;;;9.30;100.00
61697;BME280;47610;52.252;20.922;2023-05-18T03:57:46;101141.96;;;9.34;100.00
61697;BME280;47610;52.252;20.922;2023-05-18T04:02:50;101150.59;;;9.37;100.00
61697;BME280;47610;52.252;20.922;2023-05-18T04:07:53;101143.13;;;9.41;100.00
61697;BME280;47610;52.252;20.922;2023-05-18T04:12:56;101148.94;;;9.48;100.00
61697;BME280;47610;52.252;20.922;2023-05-18T04:17:59;101154.61;;;9.54;100.00
61697;BME280;47610;52.252;20.922;2023-05-18T04:23:02;101159.31;;;9.57;100.00
61697;BME280;47610;52.252;20.922;2023-05-18T04:28:06;101159.97;;;9.56;100.00
61697;BME280;47610;52.252;20.922;2023-05-18T04:33:09;101164.98;;;9.56;100.00
61697;BME280;47610;52.252;20.922;2023-05-18T04:38:12;101169.85;;;9.58;100.00
61697;BME280;47610;52.252;20.922;2023-05-18T04:43:15;101172.63;;;9.61;100.00
61697;BME280;47610;52.252;20.922;2023-05-18T04:48:19;101176.66;;;9.58;100.00
61697;BME280;47610;52.252;20.922;2023-05-18T04:53:22;101172.56;;;9.56;100.00
61697;BME280;47610;52.252;20.922;2023-05-18T04:58:25;101180.82;;;9.67;100.00
61697;BME280;47610;52.252;20.922;2023-05-18T05:03:28;101184.46;;;9.78;100.00
61697;BME280;47610;52.252;20.922;2023-05-18T05:08:32;101187.23;;;9.89;100.00
61697;BME280;47610;52.252;20.922;2023-05-18T05:13:35;101185.77;;;9.99;100.00
61697;BME280;47610;52.252;20.922;2023-05-18T05:18:38;101186.30;;;10.09;100.00
61697;BME280;47610;52.252;20.922;2023-05-18T05:23:41;101192.94;;;10.11;100.00
61697;BME280;47610;52.252;20.922;2023-05-18T05:28:44;101197.06;;;10.00;100.00
61697;BME280;47610;52.252;20.922;2023-05-18T05:33:48;101199.23;;;9.97;100.00
61697;BME280;47610;52.252;20.922;2023-05-18T05:38:51;101203.70;;;10.06;100.00
61697;BME280;47610;52.252;20.922;2023-05-18T05:43:54;101207.54;;;10.34;100.00
61697;BME280;47610;52.252;20.922;2023-05-18T05:48:57;101211.28;;;10.58;100.00
61697;BME280;47610;52.252;20.922;2023-05-18T05:54:01;101210.38;;;10.59;100.00
61697;BME280;47610;52.252;20.922;2023-05-18T05:59:04;101213.81;;;10.71;100.00
61697;BME280;47610;52.252;20.922;2023-05-18T06:04:08;101213.52;;;10.82;100.00
61697;BME280;47610;52.252;20.922;2023-05-18T06:09:11;101220.27;;;11.09;100.00
61697;BME280;47610;52.252;20.922;2023-05-18T06:14:14;101219.76;;;11.22;100.00
61697;BME280;47610;52.252;20.922;2023-05-18T06:19:17;101220.98;;;11.45;100.00
61697;BME280;47610;52.252;20.922;2023-05-18T06:24:20;101223.59;;;11.71;100.00
61697;BME280;47610;52.252;20.922;2023-05-18T06:29:24;101223.96;;;11.76;100.00
61697;BME280;47610;52.252;20.922;2023-05-18T06:34:27;101227.91;;;11.67;100.00
61697;BME280;47610;52.252;20.922;2023-05-18T06:39:30;101226.59;;;11.61;100.00
61697;BME280;47610;52.252;20.922;2023-05-18T06:44:33;101229.02;;;11.68;100.00
61697;BME280;47610;52.252;20.922;2023-05-18T06:49:36;101231.69;;;12.01;100.00
61697;BME280;47610;52.252;20.922;2023-05-18T06:54:40;101234.92;;;12.37;100.00
61697;BME280;47610;52.252;20.922;2023-05-18T06:59:43;101236.90;;;12.67;100.00
61697;BME280;47610;52.252;20.922;2023-05-18T07:04:46;101239.86;;;12.63;100.00
61697;BME280;47610;52.252;20.922;2023-05-18T07:09:50;101243.34;;;12.63;100.00
61697;BME280;47610;52.252;20.922;2023-05-18T07:14:53;101247.82;;;12.62;100.00
61697;BME280;47610;52.252;20.922;2023-05-18T07:19:56;101248.84;;;12.58;100.00
61697;BME280;47610;52.252;20.922;2023-05-18T07:24:59;101251.89;;;12.61;100.00
61697;BME280;47610;52.252;20.922;2023-05-18T07:30:03;101253.45;;;12.62;100.00
61697;BME280;47610;52.252;20.922;2023-05-18T07:35:07;101258.77;;;12.57;100.00
61697;BME280;47610;52.252;20.922;2023-05-18T07:40:11;101262.59;;;12.68;100.00
61697;BME280;47610;52.252;20.922;2023-05-18T07:45:15;101262.66;;;12.79;100.00
61697;BME280;47610;52.252;20.922;2023-05-18T07:50:18;101266.92;;;12.84;100.00
61697;BME280;47610;52.252;20.922;2023-05-18T07:55:21;101269.50;;;13.06;100.00
61697;BME280;47610;52.252;20.922;2023-05-18T08:00:25;101268.36;;;13.41;100.00
61697;BME280;47610;52.252;20.922;2023-05-18T08:05:28;101276.73;;;14.02;100.00
61697;BME280;47610;52.252;20.922;2023-05-18T08:10:31;101279.06;;;14.66;100.00
61697;BME280;47610;52.252;20.922;2023-05-18T08:15:34;101284.49;;;14.68;100.00
61697;BME280;47610;52.252;20.922;2023-05-18T08:20:38;101281.73;;;14.62;97.16
61697;BME280;47610;52.252;20.922;2023-05-18T08:25:41;101282.95;;;14.68;97.53
61697;BME280;47610;52.252;20.922;2023-05-18T08:30:44;101283.13;;;15.43;99.72
61697;BME280;47610;52.252;20.922;2023-05-18T08:35:48;101293.27;;;15.99;92.05
61697;BME280;47610;52.252;20.922;2023-05-18T08:40:57;101294.64;;;16.03;85.89
61697;BME280;47610;52.252;20.922;2023-05-18T08:46:09;101293.49;;;15.73;82.12
61697;BME280;47610;52.252;20.922;2023-05-18T08:51:13;101297.11;;;15.21;82.73
61697;BME280;47610;52.252;20.922;2023-05-18T08:56:21;101289.59;;;14.87;84.81
61697;BME280;47610;52.252;20.922;2023-05-18T09:01:25;101286.81;;;14.70;88.25
61697;BME280;47610;52.252;20.922;2023-05-18T09:06:28;101288.89;;;14.52;90.30
61697;BME280;47610;52.252;20.922;2023-05-18T09:11:32;101290.39;;;14.63;92.98
61697;BME280;47610;52.252;20.922;2023-05-18T09:16:36;101295.41;;;14.69;96.46
61697;BME280;47610;52.252;20.922;2023-05-18T09:21:39;101294.59;;;14.65;94.98
61697;BME280;47610;52.252;20.922;2023-05-18T09:26:42;101295.14;;;14.59;95.69
61697;BME280;47610;52.252;20.922;2023-05-18T09:31:46;101291.90;;;14.33;97.48
61697;BME280;47610;52.252;20.922;2023-05-18T09:36:51;101293.95;;;14.39;100.00
61697;BME280;47610;52.252;20.922;2023-05-18T09:41:58;101291.39;;;14.48;100.00
61697;BME280;47610;52.252;20.922;2023-05-18T09:47:07;101294.32;;;14.55;100.00
61697;BME280;47610;52.252;20.922;2023-05-18T09:52:11;101296.81;;;14.57;100.00
61697;BME280;47610;52.252;20.922;2023-05-18T09:57:14;101299.59;;;14.43;100.00
61697;BME280;47610;52.252;20.922;2023-05-18T10:02:22;101303.45;;;14.51;100.00
61697;BME280;47610;52.252;20.922;2023-05-18T10:07:26;101300.30;;;14.59;100.00
61697;BME280;47610;52.252;20.922;2023-05-18T10:12:30;101297.70;;;14.62;100.00
61697;BME280;47610;52.252;20.922;2023-05-18T10:17:34;101293.87;;;14.84;100.00
61697;BME280;47610;52.252;20.922;2023-05-18T10:22:38;101293.63;;;14.89;99.72
61697;BME280;47610;52.252;20.922;2023-05-18T10:27:44;101295.08;;;15.04;99.89
61697;BME280;47610;52.252;20.922;2023-05-18T10:32:48;101291.17;;;15.31;100.00
61697;BME280;47610;52.252;20.922;2023-05-18T10:37:54;101289.33;;;15.55;99.75
61697;BME280;47610;52.252;20.922;2023-05-18T10:42:58;101292.70;;;15.66;98.97
61697;BME280;47610;52.252;20.922;2023-05-18T10:48:05;101284.64;;;15.70;93.34
61697;BME280;47610;52.252;20.922;2023-05-18T10:53:13;101286.94;;;15.36;86.19
61697;BME280;47610;52.252;20.922;2023-05-18T10:58:20;101288.25;;;15.27;90.06
61697;BME280;47610;52.252;20.922;2023-05-18T11:03:25;101287.08;;;15.40;92.83
61697;BME280;47610;52.252;20.922;2023-05-18T11:08:28;101279.42;;;15.39;91.27
61697;BME280;47610;52.252;20.922;2023-05-18T11:13:33;101283.63;;;15.42;91.60
61697;BME280;47610;52.252;20.922;2023-05-18T11:18:41;101283.77;;;15.28;88.93
61697;BME280;47610;52.252;20.922;2023-05-18T11:29:16;101278.20;;;15.31;95.32
61697;BME280;47610;52.252;20.922;2023-05-18T11:34:36;101272.79;;;15.45;94.40
61697;BME280;47610;52.252;20.922;2023-05-18T11:39:42;101276.84;;;15.55;92.43
61697;BME280;47610;52.252;20.922;2023-05-18T11:44:54;101273.05;;;15.66;92.48
61697;BME280;47610;52.252;20.922;2023-05-18T11:49:59;101275.11;;;15.63;89.46
61697;BME280;47610;52.252;20.922;2023-05-18T11:55:02;101274.89;;;15.55;90.96
61697;BME280;47610;52.252;20.922;2023-05-18T12:00:09;101277.92;;;15.58;93.30
61697;BME280;47610;52.252;20.922;2023-05-18T12:05:13;101277.42;;;15.72;93.31
61697;BME280;47610;52.252;20.922;2023-05-18T12:10:17;101278.73;;;15.64;90.68
61697;BME280;47610;52.252;20.922;2023-05-18T12:15:23;101286.56;;;15.62;92.40
61697;BME280;47610;52.252;20.922;2023-05-18T12:20:27;101281.65;;;15.67;92.75
61697;BME280;47610;52.252;20.922;2023-05-18T12:25:30;101281.84;;;15.83;92.33
61697;BME280;47610;52.252;20.922;2023-05-18T12:30:33;101284.20;;;15.72;90.19
61697;BME280;47610;52.252;20.922;2023-05-18T12:35:37;101287.70;;;15.64;91.19
61697;BME280;47610;52.252;20.922;2023-05-18T12:40:40;101281.32;;;15.57;91.93
61697;BME280;47610;52.252;20.922;2023-05-18T12:45:44;101283.29;;;15.53;95.08
61697;BME280;47610;52.252;20.922;2023-05-18T12:50:46;101285.98;;;15.57;96.96
61697;BME280;47610;52.252;20.922;2023-05-18T12:55:57;101285.51;;;15.53;95.43
61697;BME280;47610;52.252;20.922;2023-05-18T13:01:07;101286.98;;;15.56;96.59
61697;BME280;47610;52.252;20.922;2023-05-18T13:06:10;101285.42;;;15.69;98.41
61697;BME280;47610;52.252;20.922;2023-05-18T13:11:13;101286.77;;;15.68;96.93
61697;BME280;47610;52.252;20.922;2023-05-18T13:16:17;101286.39;;;15.62;97.63
61697;BME280;47610;52.252;20.922;2023-05-18T13:21:20;101282.77;;;15.75;99.45
61697;BME280;47610;52.252;20.922;2023-05-18T13:26:24;101283.02;;;15.81;98.45
61697;BME280;47610;52.252;20.922;2023-05-18T13:31:27;101284.11;;;15.77;97.16
61697;BME280;47610;52.252;20.922;2023-05-18T13:36:31;101282.89;;;15.76;96.82
61697;BME280;47610;52.252;20.922;2023-05-18T13:41:34;101276.17;;;15.64;94.76
61697;BME280;47610;52.252;20.922;2023-05-18T13:46:37;101274.80;;;15.60;96.20
61697;BME280;47610;52.252;20.922;2023-05-18T13:51:40;101278.53;;;15.60;95.23
61697;BME280;47610;52.252;20.922;2023-05-18T13:56:44;101277.05;;;15.40;93.58
61697;BME280;47610;52.252;20.922;2023-05-18T14:01:47;101279.10;;;15.28;95.04
61697;BME280;47610;52.252;20.922;2023-05-18T14:06:50;101277.00;;;15.17;97.04
61697;BME280;47610;52.252;20.922;2023-05-18T14:11:53;101280.42;;;15.17;97.20
61697;BME280;47610;52.252;20.922;2023-05-18T14:16:56;101277.09;;;15.09;96.05
61697;BME280;47610;52.252;20.922;2023-05-18T14:22:00;101278.19;;;14.99;97.21
61697;BME280;47610;52.252;20.922;2023-05-18T14:27:03;101272.79;;;15.04;98.48
61697;BME280;47610;52.252;20.922;2023-05-18T14:32:07;101271.75;;;15.00;97.47
61697;BME280;47610;52.252;20.922;2023-05-18T14:37:11;101267.65;;;14.98;98.46
61697;BME280;47610;52.252;20.922;2023-05-18T14:42:14;101273.64;;;14.99;98.24
61697;BME280;47610;52.252;20.922;2023-05-18T14:47:17;101274.53;;;14.96;97.83
61697;BME280;47610;52.252;20.922;2023-05-18T14:52:20;101278.34;;;14.84;96.79
61697;BME280;47610;52.252;20.922;2023-05-18T14:57:24;101278.99;;;14.74;97.97
61697;BME280;47610;52.252;20.922;2023-05-18T15:02:27;101281.67;;;14.67;99.09
61697;BME280;47610;52.252;20.922;2023-05-18T15:07:30;101277.20;;;14.64;99.97
61697;BME280;47610;52.252;20.922;2023-05-18T15:12:33;101273.32;;;14.60;100.00
61697;BME280;47610;52.252;20.922;2023-05-18T15:17:36;101272.27;;;14.58;100.00
61697;BME280;47610;52.252;20.922;2023-05-18T15:22:39;101277.31;;;14.58;100.00
61697;BME280;47610;52.252;20.922;2023-05-18T15:27:43;101274.00;;;14.42;100.00
61697;BME280;47610;52.252;20.922;2023-05-18T15:32:46;101275.23;;;14.30;100.00
61697;BME280;47610;52.252;20.922;2023-05-18T15:37:49;101280.77;;;14.29;100.00
61697;BME280;47610;52.252;20.922;2023-05-18T15:42:52;101281.61;;;14.24;100.00
61697;BME280;47610;52.252;20.922;2023-05-18T15:47:55;101281.45;;;14.15;100.00
61697;BME280;47610;52.252;20.922;2023-05-18T15:52:59;101280.67;;;14.15;100.00
61697;BME280;47610;52.252;20.922;2023-05-18T15:58:02;101272.02;;;14.16;100.00
61697;BME280;47610;52.252;20.922;2023-05-18T16:03:05;101281.12;;;14.13;100.00
61697;BME280;47610;52.252;20.922;2023-05-18T16:08:08;101278.12;;;14.07;100.00
61697;BME280;47610;52.252;20.922;2023-05-18T16:13:11;101280.02;;;13.94;100.00
61697;BME280;47610;52.252;20.922;2023-05-18T16:18:14;101281.32;;;13.80;100.00
61697;BME280;47610;52.252;20.922;2023-05-18T16:23:18;101277.66;;;13.69;100.00
61697;BME280;47610;52.252;20.922;2023-05-18T16:28:21;101275.71;;;13.58;100.00
61697;BME280;47610;52.252;20.922;2023-05-18T16:33:24;101274.50;;;13.56;100.00
61697;BME280;47610;52.252;20.922;2023-05-18T16:38:27;101272.00;;;13.58;100.00
61697;BME280;47610;52.252;20.922;2023-05-18T16:43:31;101272.56;;;13.57;100.00
61697;BME280;47610;52.252;20.922;2023-05-18T16:48:34;101267.67;;;13.52;100.00
61697;BME280;47610;52.252;20.922;2023-05-18T16:53:38;101276.98;;;13.49;100.00
61697;BME280;47610;52.252;20.922;2023-05-18T16:58:41;101282.34;;;13.48;100.00
61697;BME280;47610;52.252;20.922;2023-05-18T17:03:44;101279.67;;;13.45;100.00
61697;BME280;47610;52.252;20.922;2023-05-18T17:08:47;101286.85;;;13.43;100.00
61697;BME280;47610;52.252;20.922;2023-05-18T17:13:50;101288.90;;;13.43;100.00
61697;BME280;47610;52.252;20.922;2023-05-18T17:18:54;101291.55;;;13.42;100.00
61697;BME280;47610;52.252;20.922;2023-05-18T17:23:57;101293.15;;;13.39;100.00
61697;BME280;47610;52.252;20.922;2023-05-18T17:29:00;101291.65;;;13.38;100.00
61697;BME280;47610;52.252;20.922;2023-05-18T17:34:04;101295.25;;;13.39;100.00
61697;BME280;47610;52.252;20.922;2023-05-18T17:39:07;101298.23;;;13.38;100.00
61697;BME280;47610;52.252;20.922;2023-05-18T17:44:10;101297.96;;;13.38;100.00
61697;BME280;47610;52.252;20.922;2023-05-18T17:49:14;101302.42;;;13.35;100.00
61697;BME280;47610;52.252;20.922;2023-05-18T17:54:17;101305.58;;;13.33;100.00
61697;BME280;47610;52.252;20.922;2023-05-18T17:59:20;101305.70;;;13.27;100.00
61697;BME280;47610;52.252;20.922;2023-05-18T18:04:23;101312.15;;;13.23;100.00
61697;BME280;47610;52.252;20.922;2023-05-18T18:09:26;101306.10;;;13.20;100.00
61697;BME280;47610;52.252;20.922;2023-05-18T18:14:30;101314.05;;;13.17;100.00
61697;BME280;47610;52.252;20.922;2023-05-18T18:19:33;101318.80;;;13.16;100.00
61697;BME280;47610;52.252;20.922;2023-05-18T18:24:36;101317.58;;;13.15;100.00
61697;BME280;47610;52.252;20.922;2023-05-18T18:29:39;101317.80;;;13.13;100.00
61697;BME280;47610;52.252;20.922;2023-05-18T18:34:42;101318.79;;;13.11;100.00
61697;BME280;47610;52.252;20.922;2023-05-18T18:39:45;101319.38;;;13.06;100.00
61697;BME280;47610;52.252;20.922;2023-05-18T18:44:49;101321.63;;;13.03;100.00
61697;BME280;47610;52.252;20.922;2023-05-18T18:49:52;101325.59;;;13.00;100.00
61697;BME280;47610;52.252;20.922;2023-05-18T18:54:55;101331.39;;;12.97;100.00
61697;BME280;47610;52.252;20.922;2023-05-18T18:59:58;101335.29;;;12.94;100.00
61697;BME280;47610;52.252;20.922;2023-05-18T19:05:01;101334.49;;;12.90;100.00
61697;BME280;47610;52.252;20.922;2023-05-18T19:10:06;101336.08;;;12.87;100.00
61697;BME280;47610;52.252;20.922;2023-05-18T19:15:11;101335.16;;;12.81;100.00
61697;BME280;47610;52.252;20.922;2023-05-18T19:20:14;101338.67;;;12.78;100.00
61697;BME280;47610;52.252;20.922;2023-05-18T19:25:17;101342.46;;;12.74;100.00
61697;BME280;47610;52.252;20.922;2023-05-18T19:30:21;101339.07;;;12.70;100.00
61697;BME280;47610;52.252;20.922;2023-05-18T19:35:25;101345.30;;;12.68;100.00
61697;BME280;47610;52.252;20.922;2023-05-18T19:40:28;101342.88;;;12.69;100.00
61697;BME280;47610;52.252;20.922;2023-05-18T19:45:31;101342.98;;;12.68;100.00
61697;BME280;47610;52.252;20.922;2023-05-18T19:50:34;101341.02;;;12.66;100.00
61697;BME280;47610;52.252;20.922;2023-05-18T19:55:38;101341.47;;;12.65;100.00
61697;BME280;47610;52.252;20.922;2023-05-18T20:00:41;101345.44;;;12.63;100.00
61697;BME280;47610;52.252;20.922;2023-05-18T20:05:44;101348.23;;;12.62;100.00
61697;BME280;47610;52.252;20.922;2023-05-18T20:10:48;101349.96;;;12.63;100.00
61697;BME280;47610;52.252;20.922;2023-05-18T20:15:51;101356.16;;;12.63;100.00
61697;BME280;47610;52.252;20.922;2023-05-18T20:20:54;101358.08;;;12.61;100.00
61697;BME280;47610;52.252;20.922;2023-05-18T20:25:57;101365.24;;;12.59;100.00
61697;BME280;47610;52.252;20.922;2023-05-18T20:31:01;101364.23;;;12.57;100.00
61697;BME280;47610;52.252;20.922;2023-05-18T20:36:05;101367.30;;;12.55;100.00
61697;BME280;47610;52.252;20.922;2023-05-18T20:41:08;101373.04;;;12.53;100.00
61697;BME280;47610;52.252;20.922;2023-05-18T20:46:12;101376.64;;;12.50;100.00
61697;BME280;47610;52.252;20.922;2023-05-18T20:51:15;101374.60;;;12.47;100.00
61697;BME280;47610;52.252;20.922;2023-05-18T20:56:18;101384.86;;;12.46;100.00
61697;BME280;47610;52.252;20.922;2023-05-18T21:01:21;101386.41;;;12.47;100.00
61697;BME280;47610;52.252;20.922;2023-05-18T21:06:25;101384.17;;;12.48;100.00
61697;BME280;47610;52.252;20.922;2023-05-18T21:11:28;101389.90;;;12.49;100.00
61697;BME280;47610;52.252;20.922;2023-05-18T21:16:31;101396.59;;;12.49;100.00
61697;BME280;47610;52.252;20.922;2023-05-18T21:21:35;101399.16;;;12.46;100.00
61697;BME280;47610;52.252;20.922;2023-05-18T21:26:38;101395.56;;;12.46;100.00
61697;BME280;47610;52.252;20.922;2023-05-18T21:31:41;101396.55;;;12.45;100.00
61697;BME280;47610;52.252;20.922;2023-05-18T21:36:44;101398.36;;;12.43;100.00
61697;BME280;47610;52.252;20.922;2023-05-18T21:41:48;101399.28;;;12.40;100.00
61697;BME280;47610;52.252;20.922;2023-05-18T21:46:51;101407.73;;;12.39;100.00
61697;BME280;47610;52.252;20.922;2023-05-18T21:51:54;101407.27;;;12.37;100.00
61697;BME280;47610;52.252;20.922;2023-05-18T21:56:57;101413.09;;;12.35;100.00
61697;BME280;47610;52.252;20.922;2023-05-18T22:02:00;101420.02;;;12.32;100.00
61697;BME280;47610;52.252;20.922;2023-05-18T22:07:04;101419.06;;;12.28;100.00
61697;BME280;47610;52.252;20.922;2023-05-18T22:12:07;101420.02;;;12.25;100.00
61697;BME280;47610;52.252;20.922;2023-05-18T22:17:11;101418.31;;;12.21;100.00
61697;BME280;47610;52.252;20.922;2023-05-18T22:22:14;101416.92;;;12.18;100.00
61697;BME280;47610;52.252;20.922;2023-05-18T22:27:17;101421.98;;;12.17;100.00
61697;BME280;47610;52.252;20.922;2023-05-18T22:32:21;101421.14;;;12.15;100.00
61697;BME280;47610;52.252;20.922;2023-05-18T22:37:24;101421.30;;;12.15;100.00
61697;BME280;47610;52.252;20.922;2023-05-18T22:42:27;101423.73;;;12.09;100.00
61697;BME280;47610;52.252;20.922;2023-05-18T22:47:30;101425.05;;;12.04;100.00
61697;BME280;47610;52.252;20.922;2023-05-18T22:52:33;101424.73;;;11.99;100.00
61697;BME280;47610;52.252;20.922;2023-05-18T22:57:37;101428.58;;;11.93;100.00
61697;BME280;47610;52.252;20.922;2023-05-18T23:02:41;101428.34;;;11.88;100.00
61697;BME280;47610;52.252;20.922;2023-05-18T23:07:44;101424.17;;;11.82;100.00
61697;BME280;47610;52.252;20.922;2023-05-18T23:12:47;101422.63;;;11.79;100.00
61697;BME280;47610;52.252;20.922;2023-05-18T23:17:50;101421.98;;;11.72;100.00
61697;BME280;47610;52.252;20.922;2023-05-18T23:22:53;101423.86;;;11.66;100.00
61697;BME280;47610;52.252;20.922;2023-05-18T23:27:57;101421.70;;;11.59;100.00
61697;BME280;47610;52.252;20.922;2023-05-18T23:33:01;101421.17;;;11.53;100.00
61697;BME280;47610;52.252;20.922;2023-05-18T23:38:04;101419.13;;;11.48;100.00
61697;BME280;47610;52.252;20.922;2023-05-18T23:43:09;101423.69;;;11.47;100.00
61697;BME280;47610;52.252;20.922;2023-05-18T23:48:14;101422.42;;;11.46;100.00
61697;BME280;47610;52.252;20.922;2023-05-18T23:53:17;101428.17;;;11.44;100.00
61697;BME280;47610;52.252;20.922;2023-05-18T23:58:23;101427.88;;;11.43;100.00
